KBTR

Baton Rouge Metropolitan, Ryan Field Airport

Baton Rouge, Louisiana, USA
METAR KBTR 161353Z 07007KT 10SM OVC080 06/00 A3028 RMK AO2 SLP255 T00610000
Observed Flight Rules
Dec-16 @ 13:53 UTC (54 minutes ago) Visual Flight Rules
Wind Visibility Clouds
70° at 7 knots 10 miles
  • Overcast at 8,000' AGL
Temperatures Readings
Current 6°C / 43°F
Dewpoint 0°C / 32°F
Humidity 66%
Altimeter 30.28" Hg
Pressure 1025.5 hPa
Elevation 21
METAR KBTR 161353Z 07007KT 10SM OVC080 06/00 A3028 RMK AO2 SLP255 T00610000
Observed Flight Rules
Dec-16 @ 13:53 UTC
(54 minutes ago)
VFR
Wind Visibility
70° at 7 knots 10 miles
Clouds
  • Overcast at 8,000' AGL
Temperature Dewpoint
6°C / 43°F 0°C / 32°F
Humidity Altimeter Pressure
66% 30.28" Hg 1025.5 hPa